EDAH Airport Information

Runway Information
Runway 10 Length 7562 ft width 115 ft
Elevation 77 ft Threshold ft Heading 106
Runway 28 Length 7562 ft Width 115 ft
Elevation 89 ft Threshold ft Heading 286
Runway 10R Length 1969 ft width 98 ft
Elevation ft Threshold ft Heading 106
Runway 28L Length 1969 ft Width 98 ft
Elevation ft Threshold ft Heading 286
Airport Frequencies
Type AFIS Name BERLIN INF Frequency 132.65 MHZ
Type INFO Name INFO Frequency 132.825 MHZ
Type TWR Name TWR Frequency 132.825 MHZ
Airport Navaids
Type NDB Name Heringsdorf Frequency 330 KHZ
Airport Weather Information & NOTAM
ADDS - METARS form results

(1148 UTC 27 September 2022)
Data provider http://aviationweather.gov/metar/data/
 
METAR text: EDAH 271120Z 16010KT 110V190 9000 -RA SCT014 12/10 Q0994 RERA
Conditions at: EDAH (HERINGSDORF , DE) observed 1120 UTC 27 September 2022
Temperature: 12.0°C (54°F)
Dewpoint: 10.0°C (50°F) [RH = 88%]
Pressure (altimeter): 29.35 inches Hg (994.0 mb)
Winds: from the SSE (160 degrees) at 12 MPH (10 knots; 5.1 m/s)
Visibility: 6 miles ( 9 km)
Ceiling: at least 12,000 feet AGL
Clouds: scattered clouds at 1400 feet AGL
Weather: -RA  (light rain)

METAR text: EDAH 271050Z 15012KT 9999 -DZ BKN013 12/10 Q0994
Conditions at: EDAH (HERINGSDORF , DE) observed 1050 UTC 27 September 2022
Temperature: 12.0°C (54°F)
Dewpoint: 10.0°C (50°F) [RH = 88%]
Pressure (altimeter): 29.35 inches Hg (994.0 mb)
Winds: from the SSE (150 degrees) at 14 MPH (12 knots; 6.2 m/s)
Visibility: 6 or more miles (10+ km)
Ceiling: 1300 feet AGL
Clouds: broken clouds at 1300 feet AGL
Weather: -DZ  (light drizzle)

Forecast for: EDAH (HERINGSDORF , DE)
Text: TAF EDAH 271100Z 2712/2721 17008KT 9999 BKN020
Forecast period: 1200 to 2100 UTC 27 September 2022
Forecast type: FROM: standard forecast or significant change
Winds: from the S (170 degrees) at 9 MPH (8 knots; 4.1 m/s)
Visibility: 6 or more miles (10+ km)
Ceiling: 2000 feet AGL
Clouds: broken clouds at 2000 feet AGL
Weather: no significant weather forecast for this period
Text: TEMPO 2712/2720 SHRA SCT006 BKN008CB
Forecast period: 1200 to 2000 UTC 27 September 2022
Forecast type: TEMPORARY: The following changes expected for less than half the time period
Visibility: missing
Ceiling: 800 feet AGL
Clouds: scattered clouds at 600 feet AGL
broken clouds at 800 feet AGL
Weather: SHRA  (rain showers)